createdAt,value
2019-01-11T00:03:21.167Z,3.56
2019-01-11T00:09:16.179Z,3.39
2019-01-11T00:15:11.169Z,2.39
2019-01-11T00:21:06.185Z,2.34
2019-01-11T00:27:01.220Z,4.09
2019-01-11T00:32:56.191Z,5.59
2019-01-11T00:38:51.205Z,4.83
2019-01-11T00:44:46.187Z,6.95
2019-01-11T00:50:41.199Z,9.78
2019-01-11T00:56:36.187Z,7.25
2019-01-11T01:02:31.242Z,6.52
2019-01-11T01:08:30.472Z,6.4
2019-01-11T01:14:21.210Z,22.68
2019-01-11T01:20:16.214Z,8.31
2019-01-11T01:26:11.224Z,7.85
2019-01-11T01:32:06.226Z,4.82
2019-01-11T01:38:01.214Z,4.22
2019-01-11T01:43:56.247Z,4.97
2019-01-11T01:49:51.228Z,7.35
2019-01-11T01:55:46.270Z,8.28
2019-01-11T02:01:41.292Z,8.88
2019-01-11T02:07:36.237Z,8.23
2019-01-11T02:13:31.233Z,7.53
2019-01-11T02:19:26.261Z,5.85
2019-01-11T02:25:21.252Z,5.5
2019-01-11T02:31:16.288Z,5.33
2019-01-11T02:37:11.253Z,6.5
2019-01-11T02:43:06.262Z,8.44
2019-01-11T02:49:01.260Z,7.71
2019-01-11T02:54:56.256Z,6.64
2019-01-11T03:00:51.267Z,4.83
2019-01-11T03:06:46.265Z,3.64
2019-01-11T03:12:41.257Z,4.28
2019-01-11T03:18:36.269Z,4.56
2019-01-11T03:24:31.260Z,3.71
2019-01-11T03:30:26.291Z,4.2
2019-01-11T03:36:21.305Z,5.36
2019-01-11T03:42:16.311Z,4.81
2019-01-11T03:48:11.283Z,3.18
2019-01-11T03:54:06.372Z,3.54
2019-01-11T04:00:01.301Z,3.32
2019-01-11T04:05:56.308Z,3.31
2019-01-11T04:11:51.286Z,3.93
2019-01-11T04:17:46.286Z,4.53
2019-01-11T04:23:41.290Z,5.54
2019-01-11T04:29:36.320Z,5.92
2019-01-11T04:35:31.306Z,6.82
2019-01-11T04:41:26.324Z,9.52
2019-01-11T04:47:21.337Z,9.22
2019-01-11T04:53:16.354Z,9.48
2019-01-11T04:59:11.362Z,21.04
2019-01-11T05:05:06.327Z,21.4
2019-01-11T05:11:01.339Z,10.68
2019-01-11T05:16:56.331Z,9.91
2019-01-11T05:22:51.340Z,12.2
2019-01-11T05:28:46.342Z,14.73
2019-01-11T05:34:41.333Z,12.05
2019-01-11T05:40:36.360Z,10.17
2019-01-11T05:46:31.384Z,8.58
2019-01-11T05:52:26.364Z,7.3
2019-01-11T05:58:21.398Z,7.78
2019-01-11T06:04:16.358Z,11.23
2019-01-11T06:10:11.394Z,13.06
2019-01-11T06:16:06.352Z,13.9
2019-01-11T06:22:01.419Z,21.05
2019-01-11T06:27:56.354Z,20.14
2019-01-11T06:33:51.371Z,15.92
2019-01-11T06:39:46.361Z,26.48
2019-01-11T06:45:41.373Z,14.53
2019-01-11T06:51:36.452Z,13.74
2019-01-11T06:57:31.434Z,13.35
2019-01-11T07:03:26.431Z,13.94
2019-01-11T07:09:21.373Z,12.97
2019-01-11T07:15:16.414Z,11.33
2019-01-11T07:21:11.403Z,13.33
2019-01-11T07:27:06.411Z,13.2
2019-01-11T07:33:01.419Z,13.83
2019-01-11T07:38:56.405Z,16.05
2019-01-11T07:44:51.388Z,14.75
2019-01-11T07:50:49.346Z,15.84
2019-01-11T07:56:41.413Z,16.04
2019-01-11T08:02:36.446Z,17.51
2019-01-11T08:08:31.414Z,17.41
2019-01-11T08:14:26.415Z,22.53
2019-01-11T08:20:21.415Z,16.43
2019-01-11T08:26:16.408Z,17.11
2019-01-11T08:32:11.435Z,18.44
2019-01-11T08:38:06.496Z,15.97
2019-01-11T08:44:01.475Z,18.08
2019-01-11T08:49:56.464Z,22.33
2019-01-11T08:55:51.429Z,33.71
2019-01-11T09:01:46.436Z,40.81
2019-01-11T09:07:41.437Z,48.56
2019-01-11T09:13:36.493Z,42.18
2019-01-11T09:19:31.510Z,30.83
2019-01-11T09:25:26.470Z,14.97
2019-01-11T09:31:21.549Z,6.64
2019-01-11T09:37:16.472Z,2.72
2019-01-11T09:43:11.474Z,3.07
2019-01-11T09:49:06.467Z,2.29
2019-01-11T09:55:01.479Z,2.33
2019-01-11T10:00:59.172Z,2.14
2019-01-11T10:06:51.463Z,2.81
2019-01-11T10:12:46.495Z,2.42
2019-01-11T10:18:41.496Z,1.93
2019-01-11T10:24:36.465Z,2.14
2019-01-11T10:30:31.482Z,2.04
2019-01-11T10:36:26.471Z,2.96
2019-01-11T10:42:21.502Z,2.4
2019-01-11T10:48:16.470Z,2.62
2019-01-11T10:54:11.508Z,2.8
2019-01-11T11:00:06.511Z,2.31
2019-01-11T11:06:01.511Z,2.43
2019-01-11T11:11:56.557Z,2.96
2019-01-11T11:17:51.549Z,2.21
2019-01-11T11:23:46.499Z,2.42
2019-01-11T11:29:41.524Z,2.6
2019-01-11T11:35:36.564Z,2.4
2019-01-11T11:41:31.522Z,2.43
2019-01-11T11:47:26.521Z,2.94
2019-01-11T11:53:21.520Z,3.28
2019-01-11T11:59:16.529Z,2.84
2019-01-11T12:05:11.574Z,2.72
2019-01-11T12:11:06.531Z,3.02
2019-01-11T12:17:01.541Z,3.48
2019-01-11T12:22:56.558Z,2.69
2019-01-11T12:28:51.612Z,3.22
2019-01-11T12:34:46.552Z,2.71
2019-01-11T12:40:41.601Z,2.57
2019-01-11T12:46:36.550Z,2.48
2019-01-11T12:52:31.586Z,2.87
2019-01-11T12:58:26.563Z,3.57
2019-01-11T13:04:21.569Z,3.7
2019-01-11T13:10:16.553Z,3.55
2019-01-11T13:16:11.571Z,3.4
2019-01-11T13:22:06.578Z,4.59
2019-01-11T13:28:01.573Z,3.08
2019-01-11T13:33:56.582Z,3.02
2019-01-11T13:39:51.611Z,3.2
2019-01-11T13:45:46.638Z,3.07
2019-01-11T13:51:41.579Z,2.61
2019-01-11T13:57:36.605Z,2.93
2019-01-11T14:03:31.589Z,3.04
2019-01-11T14:09:26.609Z,2.63
2019-01-11T14:15:21.613Z,3
2019-01-11T14:21:16.607Z,2.96
2019-01-11T14:27:11.629Z,9.26
2019-01-11T14:33:06.627Z,3.37
2019-01-11T14:39:01.628Z,5.02
2019-01-11T14:44:56.663Z,3.49
2019-01-11T14:50:51.617Z,3.95
2019-01-11T14:56:46.632Z,2.97
2019-01-11T15:02:41.620Z,3.23
2019-01-11T15:08:37.086Z,3.92
2019-01-11T15:14:31.668Z,2.92
2019-01-11T15:20:26.633Z,7.44
2019-01-11T15:26:21.644Z,6.36
2019-01-11T15:32:16.663Z,3.39
2019-01-11T15:38:11.647Z,3.51
2019-01-11T15:44:06.635Z,4.23
2019-01-11T15:50:01.651Z,4.05
2019-01-11T15:55:56.673Z,3.87
2019-01-11T16:01:51.686Z,4.78
2019-01-11T16:07:46.651Z,4.39
2019-01-11T16:13:41.692Z,6
2019-01-11T16:19:36.677Z,4.67
2019-01-11T16:25:31.693Z,4.3
2019-01-11T16:31:26.677Z,5.16
2019-01-11T16:37:21.663Z,5.08
2019-01-11T16:43:16.700Z,6.08
2019-01-11T16:49:11.681Z,5.8
2019-01-11T16:55:06.711Z,6.27
2019-01-11T17:01:01.692Z,5.81
2019-01-11T17:06:56.709Z,8.46
2019-01-11T17:12:51.706Z,5.61
2019-01-11T17:18:46.738Z,5.34
2019-01-11T17:24:41.756Z,5.98
2019-01-11T17:30:36.757Z,5.12
2019-01-11T17:36:31.725Z,4.94
2019-01-11T17:42:26.716Z,7.05
2019-01-11T17:48:21.728Z,13.82
2019-01-11T17:54:16.738Z,14.54
2019-01-11T18:00:11.728Z,12.12
2019-01-11T18:06:06.710Z,14.06
2019-01-11T18:12:01.786Z,11.7
2019-01-11T18:17:56.726Z,17.17
2019-01-11T18:23:51.744Z,18.51
2019-01-11T18:29:47.647Z,19.76
2019-01-11T18:35:41.735Z,17.82
2019-01-11T18:41:36.740Z,23.18
2019-01-11T18:47:31.764Z,18.32
2019-01-11T18:53:26.761Z,15.77
2019-01-11T18:59:21.753Z,20.82
2019-01-11T19:05:16.771Z,17.22
2019-01-11T19:11:11.788Z,16.71
2019-01-11T19:17:06.752Z,20.1
2019-01-11T19:23:01.744Z,14.97
2019-01-11T19:28:56.764Z,13.52
2019-01-11T19:34:51.756Z,24.67
2019-01-11T19:40:46.773Z,6.37
2019-01-11T19:46:42.437Z,11.44
2019-01-11T19:52:36.779Z,11.53
2019-01-11T19:58:31.808Z,11.2
2019-01-11T20:04:26.814Z,13.07
2019-01-11T20:10:21.803Z,23.64
2019-01-11T20:16:16.821Z,26.94
2019-01-11T20:22:11.803Z,27
2019-01-11T20:28:06.814Z,36.18
2019-01-11T20:34:01.813Z,26.99
2019-01-11T20:39:56.830Z,21.36
2019-01-11T20:45:51.808Z,19.05
2019-01-11T20:51:46.816Z,16.05
2019-01-11T20:57:41.855Z,16.03
2019-01-11T21:03:36.883Z,11.98
2019-01-11T21:09:31.837Z,10.2
2019-01-11T21:15:26.835Z,12.76
2019-01-11T21:21:21.828Z,13.92
2019-01-11T21:27:16.846Z,13.42
2019-01-11T21:33:11.846Z,12.59
2019-01-11T21:39:06.827Z,10.3
2019-01-11T21:45:01.878Z,10.77
2019-01-11T21:50:56.836Z,20.98
2019-01-11T21:56:51.885Z,14.46
2019-01-11T22:02:46.853Z,10.88
2019-01-11T22:08:41.845Z,9.85
2019-01-11T22:14:36.870Z,9.45
2019-01-11T22:20:31.856Z,15.66
2019-01-11T22:26:26.873Z,15.36
2019-01-11T22:32:21.867Z,14.12
2019-01-11T22:38:16.880Z,13.79
2019-01-11T22:44:11.872Z,13.73
2019-01-11T22:50:06.862Z,14.98
2019-01-11T22:56:01.895Z,16.14
2019-01-11T23:01:56.879Z,29.45
2019-01-11T23:07:51.896Z,19.89
2019-01-11T23:13:46.973Z,18.52
2019-01-11T23:19:41.878Z,12.07
2019-01-11T23:25:36.891Z,8.09
2019-01-11T23:31:31.882Z,6.29
2019-01-11T23:37:26.911Z,10.2
2019-01-11T23:43:21.935Z,11.36
2019-01-11T23:49:16.897Z,11.66
2019-01-11T23:55:11.937Z,14.57
